Time;durP1;ratioP1;P1;durP2;ratioP2;P2;SDS_P1;SDS_P2;PMS_P1;PMS_P2;Temp;Humidity;BMP_temperature;BMP_pressure;BME280_temperature;BME280_humidity;BME280_pressure;Samples;Min_cycle;Max_cycle;Signal;HPM_P1;HPM_P2
2022/03/13 00:01:13;;;;;;;;;;;-1.50;99.90;;;;;;4193890;28;20218;-46
2022/03/13 00:03:17;;;;;;;;;;;-1.50;99.90;;;;;;4192285;28;19987;-47
2022/03/13 00:05:19;;;;;;;;;;;-1.50;99.90;;;;;;4193629;28;19924;-47
2022/03/13 00:07:24;;;;;;;;;;;-1.60;99.90;;;;;;4193296;28;20458;-45
2022/03/13 00:09:25;;;;;;;;;;;-1.40;99.90;;;;;;4193010;28;20465;-46
2022/03/13 00:11:29;;;;;;;;;;;-1.50;99.90;;;;;;4193665;28;19956;-45
2022/03/13 00:13:32;;;;;;;;;;;-1.50;99.90;;;;;;4182746;28;20424;-48
2022/03/13 00:15:38;;;;;;;;;;;-1.50;99.90;;;;;;4193438;28;19982;-45
2022/03/13 00:17:40;;;;;;;;;;;-1.50;99.90;;;;;;4191733;28;20387;-47
2022/03/13 00:19:42;;;;;;;;;;;-1.60;99.90;;;;;;4193031;28;19928;-45
2022/03/13 00:21:49;;;;;;;;;;;-1.50;99.90;;;;;;4192880;28;19981;-45
2022/03/13 00:23:51;;;;;;;;;;;-1.50;99.90;;;;;;4193291;28;19981;-45
2022/03/13 00:25:53;;;;;;;;;;;-1.40;99.90;;;;;;4192879;28;19929;-49
2022/03/13 00:27:55;;;;;;;;;;;-1.50;99.90;;;;;;4175878;28;20449;-48
2022/03/13 00:29:58;;;;;;;;;;;-1.40;99.90;;;;;;4190702;28;19935;-47
2022/03/13 00:32:00;;;;;;;;;;;-1.40;99.90;;;;;;4193480;28;19993;-47
2022/03/13 00:34:02;;;;;;;;;;;-1.50;99.90;;;;;;4191995;28;19976;-49
2022/03/13 00:36:04;;;;;;;;;;;-1.60;99.90;;;;;;4193033;28;19932;-46
2022/03/13 00:38:06;;;;;;;;;;;-1.70;99.90;;;;;;4193262;28;19955;-45
2022/03/13 00:40:10;;;;;;;;;;;-1.60;99.90;;;;;;4192914;28;19954;-46
2022/03/13 00:42:13;;;;;;;;;;;-1.60;99.90;;;;;;4193064;28;20022;-44
2022/03/13 00:44:15;;;;;;;;;;;-1.70;99.90;;;;;;4193195;28;19964;-45
2022/03/13 00:46:17;;;;;;;;;;;-1.80;99.90;;;;;;4192867;28;19963;-46
2022/03/13 00:48:19;;;;;;;;;;;-1.80;99.90;;;;;;4193058;28;19964;-44
2022/03/13 00:50:21;;;;;;;;;;;-1.80;99.90;;;;;;4193285;28;19928;-47
2022/03/13 00:52:23;;;;;;;;;;;-1.70;99.90;;;;;;4193226;28;19929;-46
2022/03/13 00:54:24;;;;;;;;;;;-1.60;99.90;;;;;;4192832;28;19928;-48
2022/03/13 00:56:26;;;;;;;;;;;-1.50;99.90;;;;;;4193316;28;20428;-46
2022/03/13 00:58:28;;;;;;;;;;;-1.60;99.90;;;;;;4191517;28;19942;-46
2022/03/13 01:00:30;;;;;;;;;;;-1.70;99.90;;;;;;4194581;28;19936;-47
2022/03/13 01:02:33;;;;;;;;;;;-1.80;99.90;;;;;;4193191;28;19932;-47
2022/03/13 01:04:35;;;;;;;;;;;-2.00;99.90;;;;;;4175245;28;20529;-45
2022/03/13 01:06:38;;;;;;;;;;;-2.10;99.90;;;;;;4192923;28;20035;-45
2022/03/13 01:08:40;;;;;;;;;;;-2.20;99.90;;;;;;4192891;28;19925;-46
2022/03/13 01:10:42;;;;;;;;;;;-2.20;99.90;;;;;;4192811;28;19994;-45
2022/03/13 01:12:44;;;;;;;;;;;-2.30;99.90;;;;;;4193181;28;19998;-45
2022/03/13 01:14:47;;;;;;;;;;;-2.30;99.90;;;;;;4193534;28;19924;-44
2022/03/13 01:16:57;;;;;;;;;;;-2.40;99.90;;;;;;4195984;28;19925;-45
2022/03/13 01:18:59;;;;;;;;;;;-2.40;99.90;;;;;;4195296;28;19932;-45
2022/03/13 01:21:01;;;;;;;;;;;-2.30;99.90;;;;;;4196778;28;20407;-45
2022/03/13 01:23:03;;;;;;;;;;;-2.30;99.90;;;;;;4195084;28;20020;-48
2022/03/13 01:25:05;;;;;;;;;;;-2.40;99.90;;;;;;4195698;28;19990;-46
2022/03/13 01:27:07;;;;;;;;;;;-2.50;99.90;;;;;;4196031;28;20428;-46
2022/03/13 01:29:10;;;;;;;;;;;-2.60;99.90;;;;;;4195443;28;19928;-46
2022/03/13 01:31:12;;;;;;;;;;;-2.70;99.90;;;;;;4196099;28;19986;-48
2022/03/13 01:33:14;;;;;;;;;;;-2.70;99.90;;;;;;4195797;28;19931;-46
2022/03/13 01:35:20;;;;;;;;;;;-2.70;99.90;;;;;;4194482;28;19967;-45
2022/03/13 01:37:27;;;;;;;;;;;-2.60;99.90;;;;;;4196437;28;20178;-44
2022/03/13 01:39:29;;;;;;;;;;;-2.50;99.90;;;;;;4194189;28;19932;-46
2022/03/13 01:41:34;;;;;;;;;;;-2.50;99.90;;;;;;4179275;28;19929;-46
2022/03/13 01:43:36;;;;;;;;;;;-2.40;99.90;;;;;;4195198;28;19929;-46
2022/03/13 01:45:38;;;;;;;;;;;-2.30;99.90;;;;;;4195654;28;19978;-48
2022/03/13 01:47:40;;;;;;;;;;;-2.30;99.90;;;;;;4195656;28;19935;-47
2022/03/13 01:49:42;;;;;;;;;;;-2.40;99.90;;;;;;4193831;28;20465;-47
2022/03/13 01:51:46;;;;;;;;;;;-2.40;99.90;;;;;;4195798;28;19936;-48
2022/03/13 01:53:50;;;;;;;;;;;-2.40;99.90;;;;;;4195093;28;19924;-44
2022/03/13 01:55:54;;;;;;;;;;;-2.40;99.90;;;;;;4195450;28;19960;-45
2022/03/13 01:57:56;;;;;;;;;;;-2.50;99.90;;;;;;4194432;28;20027;-45
2022/03/13 01:59:59;;;;;;;;;;;-2.60;99.90;;;;;;4195141;28;19933;-45
2022/03/13 02:02:02;;;;;;;;;;;-2.60;99.90;;;;;;4195562;28;19959;-47
2022/03/13 02:04:04;;;;;;;;;;;-2.70;99.90;;;;;;4195451;28;19935;-48
2022/03/13 02:06:06;;;;;;;;;;;-2.60;99.90;;;;;;4195340;28;20031;-45
2022/03/13 02:08:18;;;;;;;;;;;-2.60;99.90;;;;;;4195115;28;19986;-46
2022/03/13 02:10:20;;;;;;;;;;;-2.50;99.90;;;;;;4195043;28;19928;-47
2022/03/13 02:12:24;;;;;;;;;;;-2.40;99.90;;;;;;4195282;28;20000;-47
2022/03/13 02:14:26;;;;;;;;;;;-2.30;99.90;;;;;;4194905;28;20117;-44
2022/03/13 02:16:29;;;;;;;;;;;-2.30;99.90;;;;;;4194981;28;19928;-46
2022/03/13 02:18:31;;;;;;;;;;;-2.30;99.90;;;;;;4195712;28;20015;-49
2022/03/13 02:20:40;;;;;;;;;;;-2.30;99.90;;;;;;4195181;28;19928;-48
2022/03/13 02:22:46;;;;;;;;;;;-2.50;99.90;;;;;;4195101;28;19935;-48
2022/03/13 02:24:49;;;;;;;;;;;-2.60;99.90;;;;;;4195326;28;19947;-46
2022/03/13 02:26:55;;;;;;;;;;;-2.60;99.90;;;;;;4194024;28;20358;-47
2022/03/13 02:28:57;;;;;;;;;;;-2.70;99.90;;;;;;4194931;28;19975;-47
2022/03/13 02:31:01;;;;;;;;;;;-2.70;99.90;;;;;;4194892;28;19974;-46
2022/03/13 02:33:03;;;;;;;;;;;-2.80;99.90;;;;;;4194941;28;19935;-48
2022/03/13 02:35:04;;;;;;;;;;;-2.90;99.90;;;;;;4194897;28;19932;-48
2022/03/13 02:37:15;;;;;;;;;;;-2.80;99.90;;;;;;4194468;28;19967;-46
2022/03/13 02:39:17;;;;;;;;;;;-2.80;99.90;;;;;;4194056;28;19928;-46
2022/03/13 02:41:19;;;;;;;;;;;-2.80;99.90;;;;;;4191522;28;19950;-46
2022/03/13 02:43:21;;;;;;;;;;;-2.80;99.90;;;;;;4194694;28;19932;-45
2022/03/13 02:45:28;;;;;;;;;;;-2.90;99.90;;;;;;4194433;28;19925;-47
2022/03/13 02:47:30;;;;;;;;;;;-3.10;99.90;;;;;;4193026;28;19998;-48
2022/03/13 02:49:33;;;;;;;;;;;-3.00;99.90;;;;;;4194687;28;20432;-47
2022/03/13 02:51:35;;;;;;;;;;;-3.10;99.90;;;;;;4194516;28;19936;-46
2022/03/13 02:53:37;;;;;;;;;;;-3.20;99.90;;;;;;4194585;28;19928;-45
2022/03/13 02:55:39;;;;;;;;;;;-3.30;99.90;;;;;;4194933;28;19963;-45
2022/03/13 02:57:44;;;;;;;;;;;-3.30;99.90;;;;;;4194267;28;19928;-47
2022/03/13 02:59:46;;;;;;;;;;;-3.30;99.90;;;;;;4194640;28;20301;-46
2022/03/13 03:01:48;;;;;;;;;;;-3.30;99.90;;;;;;4194658;28;19947;-45
2022/03/13 03:03:52;;;;;;;;;;;-3.40;99.90;;;;;;4194242;28;19955;-47
2022/03/13 03:05:54;;;;;;;;;;;-3.40;99.90;;;;;;4194248;28;19928;-46
2022/03/13 03:07:56;;;;;;;;;;;-3.50;99.90;;;;;;4194184;28;19928;-45
2022/03/13 03:09:58;;;;;;;;;;;-3.50;99.90;;;;;;4194361;28;20004;-46
2022/03/13 03:12:04;;;;;;;;;;;-3.50;99.90;;;;;;4194502;28;19929;-48
2022/03/13 03:14:06;;;;;;;;;;;-3.50;99.90;;;;;;4194448;28;19936;-45
2022/03/13 03:16:08;;;;;;;;;;;-3.60;99.90;;;;;;4193759;28;20442;-48
2022/03/13 03:18:10;;;;;;;;;;;-3.60;99.90;;;;;;4193945;28;19950;-47
2022/03/13 03:20:12;;;;;;;;;;;-3.50;99.90;;;;;;4193807;28;19924;-46
2022/03/13 03:22:15;;;;;;;;;;;-3.60;99.90;;;;;;4193955;28;19932;-44
2022/03/13 03:24:18;;;;;;;;;;;-3.40;99.90;;;;;;4194329;28;19928;-46
2022/03/13 03:26:20;;;;;;;;;;;-3.40;99.90;;;;;;4193791;28;20430;-48
2022/03/13 03:28:22;;;;;;;;;;;-3.30;99.90;;;;;;4194072;28;20404;-48
2022/03/13 03:30:25;;;;;;;;;;;-3.30;99.90;;;;;;4193820;28;19977;-48
2022/03/13 03:32:27;;;;;;;;;;;-3.30;99.90;;;;;;4193648;28;19935;-48
2022/03/13 03:34:29;;;;;;;;;;;-3.20;99.90;;;;;;4193793;28;19959;-49
2022/03/13 03:36:31;;;;;;;;;;;-3.20;99.90;;;;;;4177796;28;19964;-46
2022/03/13 03:38:33;;;;;;;;;;;-3.20;99.90;;;;;;4193059;28;19929;-45
2022/03/13 03:40:35;;;;;;;;;;;-3.10;99.90;;;;;;4192794;28;19979;-45
2022/03/13 03:42:37;;;;;;;;;;;-3.20;99.90;;;;;;4192610;28;19925;-47
2022/03/13 03:44:39;;;;;;;;;;;-3.40;99.90;;;;;;4192630;28;20392;-46
2022/03/13 03:46:41;;;;;;;;;;;-3.60;99.90;;;;;;4193014;28;19928;-45
2022/03/13 03:48:43;;;;;;;;;;;-3.70;99.90;;;;;;4189881;28;20462;-48
2022/03/13 03:50:45;;;;;;;;;;;-3.80;99.90;;;;;;4187039;28;19931;-46
2022/03/13 03:52:47;;;;;;;;;;;-3.90;99.90;;;;;;4193398;28;20304;-44
2022/03/13 03:54:49;;;;;;;;;;;-4.00;99.90;;;;;;4192202;28;19928;-47
2022/03/13 03:56:51;;;;;;;;;;;-3.70;99.90;;;;;;4192804;28;19931;-46
2022/03/13 03:58:53;;;;;;;;;;;-3.60;99.90;;;;;;4195484;28;19986;-45
2022/03/13 04:00:55;;;;;;;;;;;-3.60;99.90;;;;;;4193109;28;19951;-44
2022/03/13 04:02:57;;;;;;;;;;;-3.50;99.90;;;;;;4194142;28;19978;-49
2022/03/13 04:05:00;;;;;;;;;;;-3.60;99.90;;;;;;4193602;28;20351;-45
2022/03/13 04:07:02;;;;;;;;;;;-3.60;99.90;;;;;;4193300;28;20019;-47
2022/03/13 04:09:09;;;;;;;;;;;-3.70;99.90;;;;;;4193828;28;19934;-47
2022/03/13 04:11:11;;;;;;;;;;;-3.70;99.90;;;;;;4193385;28;19928;-47
2022/03/13 04:13:13;;;;;;;;;;;-3.70;99.90;;;;;;4192296;28;20458;-47
2022/03/13 04:15:15;;;;;;;;;;;-3.80;99.90;;;;;;4193840;28;19924;-44
2022/03/13 04:17:17;;;;;;;;;;;-3.80;99.90;;;;;;4192867;28;19924;-47
2022/03/13 04:19:20;;;;;;;;;;;-3.90;99.90;;;;;;4194752;28;19928;-47
2022/03/13 04:21:24;;;;;;;;;;;-3.80;99.90;;;;;;4191893;28;20477;-47
2022/03/13 04:23:26;;;;;;;;;;;-3.80;99.90;;;;;;4188374;28;19940;-47
2022/03/13 04:25:29;;;;;;;;;;;-3.70;99.90;;;;;;4181047;28;19925;-47
2022/03/13 04:27:32;;;;;;;;;;;-3.50;99.90;;;;;;4191903;28;19935;-45
2022/03/13 04:29:34;;;;;;;;;;;-3.50;99.90;;;;;;4193388;28;19925;-47
2022/03/13 04:31:38;;;;;;;;;;;-3.60;99.90;;;;;;4193280;28;20462;-46
2022/03/13 04:33:40;;;;;;;;;;;-3.60;99.90;;;;;;4193431;28;19936;-46
2022/03/13 04:35:42;;;;;;;;;;;-3.50;99.90;;;;;;4191901;28;19989;-49
2022/03/13 04:37:44;;;;;;;;;;;-3.50;99.90;;;;;;4193192;28;19928;-47
2022/03/13 04:39:50;;;;;;;;;;;-3.60;99.90;;;;;;4193587;28;19974;-49
2022/03/13 04:41:52;;;;;;;;;;;-3.80;99.90;;;;;;4193373;28;19931;-48
2022/03/13 04:43:54;;;;;;;;;;;-4.00;99.90;;;;;;4193112;28;19935;-45
2022/03/13 04:45:56;;;;;;;;;;;-4.10;99.90;;;;;;4193203;28;20050;-45
2022/03/13 04:47:58;;;;;;;;;;;-4.00;99.90;;;;;;4193243;28;20448;-45
2022/03/13 04:50:00;;;;;;;;;;;-4.00;99.90;;;;;;4194395;28;19924;-45
2022/03/13 04:52:02;;;;;;;;;;;-4.00;99.90;;;;;;4196585;28;20023;-45
2022/03/13 04:54:05;;;;;;;;;;;-3.90;99.90;;;;;;4196429;28;20093;-44
2022/03/13 04:56:07;;;;;;;;;;;-3.80;99.90;;;;;;4196237;28;19933;-46
2022/03/13 04:58:09;;;;;;;;;;;-3.90;99.90;;;;;;4196404;28;19932;-48
2022/03/13 05:00:11;;;;;;;;;;;-3.80;99.90;;;;;;4196273;28;19924;-48
2022/03/13 05:02:13;;;;;;;;;;;-3.90;99.90;;;;;;4196993;28;20362;-47
2022/03/13 05:04:15;;;;;;;;;;;-3.90;99.90;;;;;;4196064;28;19963;-46
2022/03/13 05:06:17;;;;;;;;;;;-4.10;99.90;;;;;;4196382;28;19932;-45
2022/03/13 05:08:20;;;;;;;;;;;-4.20;99.90;;;;;;4196221;28;19925;-45
2022/03/13 05:10:22;;;;;;;;;;;-4.20;99.90;;;;;;4194623;28;20420;-47
2022/03/13 05:12:27;;;;;;;;;;;-4.30;99.90;;;;;;4196178;28;20290;-45
2022/03/13 05:14:29;;;;;;;;;;;-4.30;99.90;;;;;;4195865;28;20485;-46
2022/03/13 05:16:31;;;;;;;;;;;-4.40;99.90;;;;;;4195745;28;19925;-47
2022/03/13 05:18:33;;;;;;;;;;;-4.50;99.90;;;;;;4195794;28;19978;-45
2022/03/13 05:20:35;;;;;;;;;;;-4.60;99.90;;;;;;4195597;28;19939;-45
2022/03/13 05:22:37;;;;;;;;;;;-4.50;99.90;;;;;;4195966;28;19928;-45
2022/03/13 05:24:39;;;;;;;;;;;-4.50;99.90;;;;;;4195844;28;19950;-44
2022/03/13 05:26:41;;;;;;;;;;;-4.50;99.90;;;;;;4195818;28;19986;-48
2022/03/13 05:28:43;;;;;;;;;;;-4.40;99.90;;;;;;4195841;28;20388;-47
2022/03/13 05:30:46;;;;;;;;;;;-4.30;99.90;;;;;;4191094;28;19928;-47
2022/03/13 05:32:48;;;;;;;;;;;-4.40;99.90;;;;;;4196302;28;20314;-46
2022/03/13 05:34:51;;;;;;;;;;;-4.40;99.90;;;;;;4196140;28;19925;-48
2022/03/13 05:36:53;;;;;;;;;;;-4.30;99.90;;;;;;4194226;28;19932;-45
2022/03/13 05:38:55;;;;;;;;;;;-4.30;99.90;;;;;;4196047;28;19960;-46
2022/03/13 05:40:57;;;;;;;;;;;-4.40;99.90;;;;;;4195715;28;19963;-46
2022/03/13 05:42:59;;;;;;;;;;;-4.40;99.90;;;;;;4194444;28;20011;-46
2022/03/13 05:45:01;;;;;;;;;;;-4.40;99.90;;;;;;4195339;28;19991;-48
2022/03/13 05:47:03;;;;;;;;;;;-4.40;99.90;;;;;;4195647;28;19925;-44
2022/03/13 05:49:06;;;;;;;;;;;-4.50;99.90;;;;;;4194041;28;19947;-46
2022/03/13 05:51:08;;;;;;;;;;;-4.50;99.90;;;;;;4195926;28;20400;-48
2022/03/13 05:53:10;;;;;;;;;;;-4.50;99.90;;;;;;4195438;28;20020;-47
2022/03/13 05:55:13;;;;;;;;;;;-4.40;99.90;;;;;;4195306;28;20404;-45
2022/03/13 05:57:15;;;;;;;;;;;-4.40;99.90;;;;;;4195571;28;19951;-47
2022/03/13 05:59:17;;;;;;;;;;;-4.40;99.90;;;;;;4195394;28;19936;-45
2022/03/13 06:01:19;;;;;;;;;;;-4.40;99.90;;;;;;4194083;28;20328;-47
2022/03/13 06:03:24;;;;;;;;;;;-4.40;99.90;;;;;;4195200;28;20501;-48
2022/03/13 06:05:26;;;;;;;;;;;-4.50;99.90;;;;;;4195447;28;19924;-45
2022/03/13 06:07:28;;;;;;;;;;;-4.50;99.90;;;;;;4195177;28;20384;-47
2022/03/13 06:09:30;;;;;;;;;;;-4.50;99.90;;;;;;4195495;28;19929;-47
2022/03/13 06:11:32;;;;;;;;;;;-4.50;99.90;;;;;;4195409;28;20392;-45
2022/03/13 06:13:34;;;;;;;;;;;-4.50;99.90;;;;;;4195018;28;19951;-45
2022/03/13 06:15:37;;;;;;;;;;;-4.50;99.90;;;;;;4194567;28;19929;-48
2022/03/13 06:17:40;;;;;;;;;;;-4.50;99.90;;;;;;4195011;28;20039;-45
2022/03/13 06:19:44;;;;;;;;;;;-4.40;99.90;;;;;;4194935;28;19928;-44
2022/03/13 06:21:49;;;;;;;;;;;-4.50;99.90;;;;;;4194363;28;20471;-44
2022/03/13 06:23:51;;;;;;;;;;;-4.40;99.90;;;;;;4194729;28;20380;-46
2022/03/13 06:25:53;;;;;;;;;;;-4.30;99.90;;;;;;4195022;28;19970;-45
2022/03/13 06:27:55;;;;;;;;;;;-4.10;99.90;;;;;;4195110;28;19929;-49
2022/03/13 06:29:59;;;;;;;;;;;-4.00;99.90;;;;;;4194716;28;19936;-45
2022/03/13 06:32:01;;;;;;;;;;;-4.00;99.90;;;;;;4195240;28;19928;-47
2022/03/13 06:34:03;;;;;;;;;;;-3.90;99.90;;;;;;4193453;28;20031;-47
2022/03/13 06:36:05;;;;;;;;;;;-3.90;99.90;;;;;;4194921;28;19935;-46
2022/03/13 06:38:07;;;;;;;;;;;-3.80;99.90;;;;;;4194748;28;19978;-46
2022/03/13 06:40:10;;;;;;;;;;;-3.70;99.90;;;;;;4194766;28;19929;-48
2022/03/13 06:42:12;;;;;;;;;;;-3.80;99.90;;;;;;4195086;28;19924;-47
2022/03/13 06:44:14;;;;;;;;;;;-4.00;99.90;;;;;;4194016;28;19928;-47
2022/03/13 06:46:16;;;;;;;;;;;-3.90;99.90;;;;;;4190125;28;19986;-46
2022/03/13 06:48:21;;;;;;;;;;;-3.90;99.90;;;;;;4193365;28;19928;-47
2022/03/13 06:50:23;;;;;;;;;;;-3.90;99.90;;;;;;4194383;28;19967;-49
2022/03/13 06:52:25;;;;;;;;;;;-3.80;99.90;;;;;;4194754;28;19928;-46
2022/03/13 06:54:27;;;;;;;;;;;-3.80;99.90;;;;;;4194798;28;19928;-47
2022/03/13 06:56:29;;;;;;;;;;;-3.70;99.90;;;;;;4192871;28;19924;-48
2022/03/13 06:58:31;;;;;;;;;;;-3.70;99.90;;;;;;4194490;28;19925;-47
2022/03/13 07:00:33;;;;;;;;;;;-3.50;99.90;;;;;;4194296;28;20389;-48
2022/03/13 07:02:35;;;;;;;;;;;-3.40;99.90;;;;;;4193217;28;19950;-47
2022/03/13 07:04:37;;;;;;;;;;;-3.30;99.90;;;;;;4192987;28;19967;-45
2022/03/13 07:06:39;;;;;;;;;;;-3.20;99.90;;;;;;4193384;28;20373;-45
2022/03/13 07:08:41;;;;;;;;;;;-3.10;99.90;;;;;;4195456;28;19924;-47
2022/03/13 07:10:43;;;;;;;;;;;-3.00;99.90;;;;;;4192885;28;19977;-44
2022/03/13 07:12:46;;;;;;;;;;;-3.00;99.90;;;;;;4193536;28;19935;-47
2022/03/13 07:14:48;;;;;;;;;;;-2.90;99.90;;;;;;4191802;28;19975;-46
2022/03/13 07:16:50;;;;;;;;;;;-3.00;99.90;;;;;;4193968;28;19970;-48
2022/03/13 07:18:52;;;;;;;;;;;-3.00;99.90;;;;;;4192887;28;19970;-50
2022/03/13 07:20:54;;;;;;;;;;;-2.80;99.90;;;;;;4194268;28;20427;-50
2022/03/13 07:22:56;;;;;;;;;;;-2.70;99.90;;;;;;4193838;28;19928;-46
2022/03/13 07:24:58;;;;;;;;;;;-2.60;99.90;;;;;;4193872;28;20114;-48
2022/03/13 07:27:00;;;;;;;;;;;-2.50;99.90;;;;;;4194091;28;20324;-50
2022/03/13 07:29:02;;;;;;;;;;;-2.40;99.90;;;;;;4194150;28;19928;-47
2022/03/13 07:31:04;;;;;;;;;;;-2.40;99.90;;;;;;4194046;28;20350;-46
2022/03/13 07:33:06;;;;;;;;;;;-2.30;99.90;;;;;;4193790;28;19975;-50
2022/03/13 07:35:09;;;;;;;;;;;-2.20;99.90;;;;;;4177422;28;19940;-50
2022/03/13 07:37:11;;;;;;;;;;;-2.10;99.90;;;;;;4188784;28;19931;-47
2022/03/13 07:39:14;;;;;;;;;;;-2.00;99.90;;;;;;4193580;28;19933;-49
2022/03/13 07:41:15;;;;;;;;;;;-1.80;99.90;;;;;;4193705;28;19935;-50
2022/03/13 07:43:18;;;;;;;;;;;-1.60;99.90;;;;;;4193494;28;19974;-49
2022/03/13 07:45:20;;;;;;;;;;;-1.40;99.90;;;;;;4193758;28;20429;-49
2022/03/13 07:47:22;;;;;;;;;;;-1.30;99.90;;;;;;4188695;28;20035;-47
2022/03/13 07:49:24;;;;;;;;;;;-1.20;99.90;;;;;;4191820;28;19928;-48
2022/03/13 07:51:28;;;;;;;;;;;-1.10;99.90;;;;;;4192822;28;20445;-49
2022/03/13 07:53:30;;;;;;;;;;;-0.90;99.90;;;;;;4193366;28;19925;-48
2022/03/13 07:55:32;;;;;;;;;;;-0.70;99.90;;;;;;4193734;28;19932;-48
2022/03/13 07:57:34;;;;;;;;;;;-0.60;99.90;;;;;;4193594;28;19939;-51
2022/03/13 07:59:40;;;;;;;;;;;-0.40;99.90;;;;;;4193654;28;19935;-50
2022/03/13 08:01:42;;;;;;;;;;;-0.20;99.90;;;;;;4192712;28;19928;-49
2022/03/13 08:03:45;;;;;;;;;;;-0.20;99.90;;;;;;4191883;28;20344;-49
2022/03/13 08:05:47;;;;;;;;;;;0.00;99.90;;;;;;4193383;28;19928;-48
2022/03/13 08:07:49;;;;;;;;;;;0.10;99.90;;;;;;4188392;28;20013;-47
2022/03/13 08:09:51;;;;;;;;;;;0.20;99.90;;;;;;4194300;28;19931;-46
2022/03/13 08:11:53;;;;;;;;;;;0.30;99.90;;;;;;4189678;28;19925;-50
2022/03/13 08:13:55;;;;;;;;;;;0.40;99.90;;;;;;4186725;28;19929;-50
2022/03/13 08:15:57;;;;;;;;;;;0.60;99.90;;;;;;4193309;28;19924;-51
2022/03/13 08:18:00;;;;;;;;;;;0.70;99.90;;;;;;4192814;28;19947;-50
2022/03/13 08:20:03;;;;;;;;;;;0.80;99.90;;;;;;4191350;28;20307;-48
2022/03/13 08:22:05;;;;;;;;;;;0.90;99.90;;;;;;4193395;28;19974;-47
2022/03/13 08:24:07;;;;;;;;;;;1.10;99.90;;;;;;4191941;28;19975;-48
2022/03/13 08:26:09;;;;;;;;;;;1.20;99.90;;;;;;4193157;28;20022;-50
2022/03/13 08:28:11;;;;;;;;;;;1.30;99.90;;;;;;4192935;28;19924;-49
2022/03/13 08:30:13;;;;;;;;;;;1.50;99.90;;;;;;4193258;28;19929;-47
2022/03/13 08:32:18;;;;;;;;;;;1.50;99.90;;;;;;4191661;28;19968;-50
2022/03/13 08:34:20;;;;;;;;;;;1.70;99.90;;;;;;4192285;28;20308;-47
2022/03/13 08:36:22;;;;;;;;;;;1.90;99.90;;;;;;4193136;28;20324;-51
2022/03/13 08:38:24;;;;;;;;;;;2.10;99.90;;;;;;4191989;28;20305;-50
2022/03/13 08:40:26;;;;;;;;;;;2.20;99.90;;;;;;4193308;28;19928;-50
2022/03/13 08:42:28;;;;;;;;;;;2.40;99.90;;;;;;4192942;28;20103;-48
2022/03/13 08:44:30;;;;;;;;;;;2.50;99.90;;;;;;4193107;28;19974;-51
2022/03/13 08:46:32;;;;;;;;;;;2.50;99.90;;;;;;4191563;28;20506;-51
2022/03/13 08:48:35;;;;;;;;;;;2.60;99.90;;;;;;4192980;28;19925;-50
2022/03/13 08:50:36;;;;;;;;;;;2.80;99.90;;;;;;4188123;28;19972;-51
2022/03/13 08:52:39;;;;;;;;;;;3.00;99.90;;;;;;4182518;28;19978;-49
2022/03/13 08:54:40;;;;;;;;;;;3.10;99.90;;;;;;4191853;28;19971;-47
2022/03/13 08:56:43;;;;;;;;;;;3.30;99.90;;;;;;4192136;28;19935;-49
2022/03/13 08:58:45;;;;;;;;;;;3.40;99.90;;;;;;4191946;28;19928;-48
2022/03/13 09:00:50;;;;;;;;;;;3.60;99.90;;;;;;4192418;28;19928;-47
2022/03/13 09:02:53;;;;;;;;;;;3.70;99.90;;;;;;4192990;28;19925;-48
2022/03/13 09:04:55;;;;;;;;;;;3.80;99.90;;;;;;4192969;28;20311;-47
2022/03/13 09:06:57;;;;;;;;;;;4.00;99.90;;;;;;4192902;28;19936;-48
2022/03/13 09:08:59;;;;;;;;;;;4.20;99.90;;;;;;4194092;28;19932;-50
2022/03/13 09:11:01;;;;;;;;;;;4.40;99.90;;;;;;4193217;28;19947;-47
2022/03/13 09:13:03;;;;;;;;;;;4.60;99.90;;;;;;4191159;28;19931;-49
2022/03/13 09:15:05;;;;;;;;;;;4.80;99.90;;;;;;4193280;28;19938;-48
2022/03/13 09:17:07;;;;;;;;;;;5.10;99.90;;;;;;4192902;28;19971;-47
2022/03/13 09:19:09;;;;;;;;;;;5.20;99.90;;;;;;4191200;28;20316;-48
2022/03/13 09:21:11;;;;;;;;;;;5.30;99.90;;;;;;4188161;28;19932;-50
2022/03/13 09:23:13;;;;;;;;;;;5.60;99.90;;;;;;4189601;28;20286;-50
2022/03/13 09:25:18;;;;;;;;;;;5.90;99.90;;;;;;4192956;28;20366;-49
2022/03/13 09:27:20;;;;;;;;;;;6.10;99.90;;;;;;4192933;28;19981;-50
2022/03/13 09:29:22;;;;;;;;;;;6.20;99.90;;;;;;4184317;28;20349;-50
2022/03/13 09:31:27;;;;;;;;;;;6.50;99.90;;;;;;4187114;28;19929;-47
2022/03/13 09:33:29;;;;;;;;;;;6.60;99.90;;;;;;4191929;28;19943;-48
2022/03/13 09:35:31;;;;;;;;;;;6.70;99.20;;;;;;4193505;28;19924;-48
2022/03/13 09:37:33;;;;;;;;;;;7.00;99.90;;;;;;4195700;28;19928;-50
2022/03/13 09:39:46;;;;;;;;;;;7.10;98.60;;;;;;4195914;28;20472;-49
2022/03/13 09:41:48;;;;;;;;;;;7.40;98.60;;;;;;4195859;28;20360;-48
2022/03/13 09:43:50;;;;;;;;;;;7.60;98.60;;;;;;4196103;28;19974;-49
2022/03/13 09:45:52;;;;;;;;;;;7.70;96.90;;;;;;4196119;28;19924;-51
2022/03/13 09:47:54;;;;;;;;;;;7.70;97.60;;;;;;4195916;28;19954;-49
2022/03/13 09:49:56;;;;;;;;;;;8.20;99.10;;;;;;4195581;28;19928;-48
2022/03/13 09:51:59;;;;;;;;;;;8.70;97.90;;;;;;4192246;28;20475;-50
2022/03/13 09:54:02;;;;;;;;;;;8.90;96.90;;;;;;4195670;28;20388;-48
2022/03/13 09:56:05;;;;;;;;;;;8.80;95.80;;;;;;4193720;28;19928;-50
2022/03/13 09:58:08;;;;;;;;;;;8.80;94.60;;;;;;4195388;28;20385;-48
2022/03/13 10:00:12;;;;;;;;;;;8.80;95.30;;;;;;4195960;28;19986;-50
2022/03/13 10:02:15;;;;;;;;;;;9.20;96.90;;;;;;4195590;28;19928;-52
2022/03/13 10:04:17;;;;;;;;;;;9.50;94.80;;;;;;4191919;28;19924;-49
2022/03/13 10:06:19;;;;;;;;;;;9.40;93.60;;;;;;4195682;28;20498;-51
2022/03/13 10:08:26;;;;;;;;;;;9.40;93.90;;;;;;4195739;28;19928;-51
2022/03/13 10:10:33;;;;;;;;;;;9.40;93.50;;;;;;4192137;28;19929;-48
2022/03/13 10:12:39;;;;;;;;;;;10.00;95.40;;;;;;4191477;28;19924;-48
2022/03/13 10:14:59;;;;;;;;;;;10.20;90.50;;;;;;4195341;28;19931;-48
2022/03/13 10:17:02;;;;;;;;;;;10.30;91.90;;;;;;4194527;28;19928;-50
2022/03/13 10:19:13;;;;;;;;;;;10.40;90.90;;;;;;4194898;28;19928;-47
2022/03/13 10:21:19;;;;;;;;;;;10.20;89.80;;;;;;4183109;28;19968;-51
2022/03/13 10:23:22;;;;;;;;;;;10.30;92.00;;;;;;4194459;28;19928;-49
2022/03/13 10:25:28;;;;;;;;;;;10.40;91.30;;;;;;4193129;28;20301;-50
2022/03/13 10:27:32;;;;;;;;;;;10.40;90.50;;;;;;4193435;28;20316;-48
2022/03/13 10:29:34;;;;;;;;;;;10.50;88.60;;;;;;4190428;28;20556;-51
2022/03/13 10:31:36;;;;;;;;;;;10.50;89.80;;;;;;4199381;28;19958;-50
2022/03/13 10:33:43;;;;;;;;;;;10.60;87.10;;;;;;4190699;28;19932;-49
2022/03/13 10:35:47;;;;;;;;;;;10.50;85.80;;;;;;4184371;28;20027;-49
2022/03/13 10:37:48;;;;;;;;;;;10.50;84.60;;;;;;4186933;28;20210;-49
2022/03/13 10:40:03;;;;;;;;;;;10.70;84.50;;;;;;4194250;28;19933;-50
2022/03/13 10:42:06;;;;;;;;;;;10.90;84.70;;;;;;4191255;28;19928;-49
2022/03/13 10:44:13;;;;;;;;;;;10.80;81.70;;;;;;4199980;28;19935;-50
2022/03/13 10:46:31;;;;;;;;;;;10.80;82.10;;;;;;4194692;28;20029;-51
2022/03/13 10:48:36;;;;;;;;;;;11.20;84.60;;;;;;4188790;28;19925;-51
2022/03/13 10:50:43;;;;;;;;;;;11.30;80.90;;;;;;4191075;28;20505;-48
2022/03/13 10:52:47;;;;;;;;;;;11.70;84.70;;;;;;4189556;28;20003;-49
2022/03/13 10:54:49;;;;;;;;;;;12.50;90.40;;;;;;4187690;28;19928;-51
2022/03/13 10:57:03;;;;;;;;;;;12.50;81.10;;;;;;4192100;28;19964;-48
2022/03/13 10:59:17;;;;;;;;;;;11.80;80.30;;;;;;4197953;28;19928;-50
2022/03/13 11:01:23;;;;;;;;;;;11.50;79.60;;;;;;4189248;28;20396;-50
2022/03/13 11:03:26;;;;;;;;;;;11.60;80.40;;;;;;4188464;28;19982;-50
2022/03/13 11:05:30;;;;;;;;;;;11.70;80.80;;;;;;4189314;28;20456;-51
2022/03/13 11:07:32;;;;;;;;;;;11.80;79.20;;;;;;4187489;28;20442;-50
2022/03/13 11:09:34;;;;;;;;;;;11.60;77.50;;;;;;4183511;28;19925;-51
2022/03/13 11:11:35;;;;;;;;;;;12.00;85.80;;;;;;4187498;28;19932;-50
2022/03/13 11:13:41;;;;;;;;;;;12.60;81.60;;;;;;4190128;28;20420;-49
2022/03/13 11:15:44;;;;;;;;;;;13.10;78.40;;;;;;4183265;28;19935;-48
2022/03/13 11:17:47;;;;;;;;;;;12.90;78.10;;;;;;4187401;28;19924;-49
2022/03/13 11:19:50;;;;;;;;;;;12.10;76.70;;;;;;4193522;28;19929;-48
2022/03/13 11:21:52;;;;;;;;;;;11.70;78.10;;;;;;4186807;28;20454;-48
2022/03/13 11:23:54;;;;;;;;;;;12.10;78.40;;;;;;4191653;28;20050;-50
2022/03/13 11:25:56;;;;;;;;;;;12.40;79.00;;;;;;4183019;28;19982;-52
2022/03/13 11:27:58;;;;;;;;;;;12.70;81.20;;;;;;4191373;28;19976;-49
2022/03/13 11:30:00;;;;;;;;;;;12.70;76.00;;;;;;4191374;28;20319;-48
2022/03/13 11:32:22;;;;;;;;;;;13.00;81.10;;;;;;4193469;28;19928;-48
2022/03/13 11:34:25;;;;;;;;;;;13.40;79.10;;;;;;4181952;28;19936;-49
2022/03/13 11:36:30;;;;;;;;;;;13.00;77.70;;;;;;4188305;28;19978;-51
2022/03/13 11:38:32;;;;;;;;;;;12.70;75.60;;;;;;4193030;28;19928;-47
2022/03/13 11:40:38;;;;;;;;;;;12.60;78.60;;;;;;4192649;28;19924;-51
2022/03/13 11:42:47;;;;;;;;;;;12.80;77.60;;;;;;4193793;28;19933;-49
2022/03/13 11:44:49;;;;;;;;;;;12.80;80.50;;;;;;4192063;28;19928;-48
2022/03/13 11:46:52;;;;;;;;;;;12.50;80.40;;;;;;4193422;28;20334;-50
2022/03/13 11:48:54;;;;;;;;;;;12.30;77.80;;;;;;4193472;28;19950;-51
2022/03/13 11:51:01;;;;;;;;;;;13.20;82.60;;;;;;4191759;28;19974;-51
2022/03/13 11:53:14;;;;;;;;;;;13.20;76.90;;;;;;4193545;28;19967;-50
2022/03/13 11:55:31;;;;;;;;;;;13.20;76.80;;;;;;4190581;28;20446;-49
2022/03/13 11:57:45;;;;;;;;;;;13.10;77.50;;;;;;4191242;28;19957;-49